createdAt,value
2023-02-18T00:00:19.181Z,13.80
2023-02-18T00:05:23.125Z,13.80
2023-02-18T00:10:26.047Z,13.90
2023-02-18T00:15:29.030Z,13.90
2023-02-18T00:20:33.665Z,13.80
2023-02-18T00:25:36.594Z,13.80
2023-02-18T00:30:44.194Z,13.80
2023-02-18T00:35:47.640Z,13.90
2023-02-18T00:40:50.656Z,13.90
2023-02-18T00:45:54.295Z,14.00
2023-02-18T00:50:57.295Z,14.00
2023-02-18T00:56:01.475Z,14.00
2023-02-18T01:01:07.695Z,14.00
2023-02-18T01:06:12.289Z,14.00
2023-02-18T01:11:15.415Z,14.00
2023-02-18T01:16:18.550Z,14.00
2023-02-18T01:21:21.492Z,14.10
2023-02-18T01:26:24.473Z,14.10
2023-02-18T01:31:27.855Z,14.10
2023-02-18T01:36:31.042Z,14.20
2023-02-18T01:41:33.882Z,14.20
2023-02-18T01:46:37.485Z,14.20
2023-02-18T01:51:47.273Z,14.20
2023-02-18T01:57:05.325Z,14.20
2023-02-18T02:02:16.934Z,14.10
2023-02-18T02:07:23.694Z,14.10
2023-02-18T02:12:45.313Z,14.10
2023-02-18T02:18:40.526Z,14.10
2023-02-18T02:24:20.673Z,14.10
2023-02-18T02:29:44.768Z,14.00
2023-02-18T02:35:07.206Z,14.00
2023-02-18T02:40:09.953Z,14.10
2023-02-18T02:46:07.444Z,14.10
2023-02-18T02:51:45.053Z,14.10
2023-02-18T02:56:48.676Z,14.10
2023-02-18T03:02:21.927Z,14.10
2023-02-18T03:08:01.612Z,14.20
2023-02-18T03:13:19.927Z,14.10
2023-02-18T03:19:02.185Z,14.10
2023-02-18T03:24:16.706Z,14.10
2023-02-18T03:29:21.555Z,14.10
2023-02-18T03:34:33.674Z,14.10
2023-02-18T03:39:39.393Z,14.10
2023-02-18T03:44:42.323Z,14.10
2023-02-18T03:49:45.887Z,14.10
2023-02-18T03:54:48.982Z,14.10
2023-02-18T03:59:51.735Z,14.10
2023-02-18T04:04:54.726Z,14.10
2023-02-18T04:09:57.693Z,14.20
2023-02-18T04:15:00.451Z,14.20
2023-02-18T04:20:04.734Z,14.20
2023-02-18T04:25:08.687Z,14.10
2023-02-18T04:30:12.641Z,14.10
2023-02-18T04:35:15.835Z,14.00
2023-02-18T04:40:18.897Z,14.00
2023-02-18T04:45:21.841Z,13.90
2023-02-18T04:50:24.822Z,13.80
2023-02-18T04:55:27.725Z,13.70
2023-02-18T05:00:30.559Z,13.60
2023-02-18T05:05:33.616Z,13.50
2023-02-18T05:10:39.201Z,13.40
2023-02-18T05:15:42.461Z,13.30
2023-02-18T05:20:45.441Z,13.30
2023-02-18T05:25:48.607Z,13.20
2023-02-18T05:30:51.535Z,13.10
2023-02-18T05:35:54.885Z,12.90
2023-02-18T05:40:57.950Z,12.90
2023-02-18T05:46:01.201Z,12.80
2023-02-18T05:51:05.162Z,12.80
2023-02-18T05:56:08.651Z,12.70
2023-02-18T06:01:11.754Z,12.60
2023-02-18T06:06:14.968Z,12.50
2023-02-18T06:11:18.081Z,12.40
2023-02-18T06:16:21.226Z,12.40
2023-02-18T06:21:24.646Z,12.30
2023-02-18T06:26:27.724Z,12.30
2023-02-18T06:31:30.833Z,12.30
2023-02-18T06:36:33.904Z,12.30
2023-02-18T06:41:36.898Z,12.30
2023-02-18T06:46:40.062Z,12.30
2023-02-18T06:51:43.067Z,12.30
2023-02-18T06:56:46.049Z,12.40
2023-02-18T07:01:49.007Z,12.50
2023-02-18T07:06:52.104Z,12.70
2023-02-18T07:11:55.070Z,12.80
2023-02-18T07:16:58.279Z,13.00
2023-02-18T07:22:01.632Z,13.00
2023-02-18T07:27:05.572Z,12.90
2023-02-18T07:32:08.538Z,12.90
2023-02-18T07:37:12.506Z,12.90
2023-02-18T07:42:15.672Z,12.80
2023-02-18T07:47:21.573Z,12.80
2023-02-18T07:52:24.990Z,12.90
2023-02-18T07:57:27.668Z,13.00
2023-02-18T08:02:30.480Z,13.10
2023-02-18T08:07:33.266Z,13.20
2023-02-18T08:12:36.229Z,13.40
2023-02-18T08:17:39.087Z,13.60
2023-02-18T08:22:42.076Z,13.70
2023-02-18T08:27:45.029Z,13.70
2023-02-18T08:32:48.041Z,13.70
2023-02-18T08:37:53.110Z,13.70
2023-02-18T08:42:57.462Z,13.80
2023-02-18T08:48:18.286Z,13.90
2023-02-18T08:53:23.224Z,14.00
2023-02-18T08:58:26.213Z,14.00
2023-02-18T09:03:29.416Z,14.20
2023-02-18T09:08:32.410Z,14.30
2023-02-18T09:13:35.392Z,14.40
2023-02-18T09:18:38.932Z,14.60
2023-02-18T09:23:42.982Z,14.60
2023-02-18T09:28:45.878Z,14.60
2023-02-18T09:33:56.588Z,14.60
2023-02-18T09:39:00.214Z,14.80
2023-02-18T09:44:11.735Z,14.90
2023-02-18T09:49:26.465Z,15.40
2023-02-18T09:54:30.050Z,15.90
2023-02-18T09:59:33.073Z,16.10
2023-02-18T10:04:44.980Z,16.00
2023-02-18T10:09:51.999Z,15.70
2023-02-18T10:15:01.368Z,15.50
2023-02-18T10:20:07.933Z,15.30
2023-02-18T10:25:20.696Z,15.10
2023-02-18T10:30:55.635Z,15.00
2023-02-18T10:36:30.255Z,14.80
2023-02-18T10:42:18.225Z,14.60
2023-02-18T10:47:30.948Z,14.50
2023-02-18T10:52:47.573Z,14.30
2023-02-18T10:57:55.662Z,14.20
2023-02-18T11:03:38.949Z,14.10
2023-02-18T11:08:45.415Z,14.00
2023-02-18T11:13:59.020Z,13.90
2023-02-18T11:19:04.506Z,13.70
2023-02-18T11:24:15.366Z,13.70
2023-02-18T11:29:20.163Z,13.70
2023-02-18T11:34:33.236Z,13.80
2023-02-18T11:39:36.610Z,13.80
2023-02-18T11:44:53.487Z,14.00
2023-02-18T11:50:10.833Z,14.10
2023-02-18T11:55:22.602Z,14.30
2023-02-18T12:00:40.667Z,14.40
2023-02-18T12:05:45.836Z,14.60
2023-02-18T12:10:56.056Z,14.80
2023-02-18T12:16:26.886Z,15.00
2023-02-18T12:21:53.424Z,15.30
2023-02-18T12:27:22.703Z,15.80
2023-02-18T12:32:56.715Z,16.00
2023-02-18T12:38:11.193Z,16.30
2023-02-18T12:43:48.837Z,16.60
2023-02-18T12:49:21.580Z,16.80
2023-02-18T12:55:08.335Z,17.00
2023-02-18T13:00:36.126Z,16.90
2023-02-18T13:05:54.609Z,16.40
2023-02-18T13:11:12.823Z,16.30
2023-02-18T13:16:19.908Z,16.30
2023-02-18T13:21:24.051Z,16.50
2023-02-18T13:26:31.389Z,16.60
2023-02-18T13:32:10.633Z,16.80
2023-02-18T13:37:37.375Z,17.00
2023-02-18T13:42:40.377Z,17.00
2023-02-18T13:47:49.849Z,17.00
2023-02-18T13:53:08.081Z,17.00
2023-02-18T13:58:23.811Z,16.90
2023-02-18T14:03:36.213Z,16.70
2023-02-18T14:08:40.497Z,16.70
2023-02-18T14:14:25.857Z,16.50
2023-02-18T14:19:30.189Z,16.40
2023-02-18T14:24:49.950Z,16.30
2023-02-18T14:29:53.078Z,16.30
2023-02-18T14:35:20.986Z,16.30
2023-02-18T14:40:42.902Z,16.40
2023-02-18T14:46:33.278Z,16.60
2023-02-18T14:51:36.551Z,16.70
2023-02-18T14:56:58.621Z,16.70
2023-02-18T15:02:01.813Z,16.60
2023-02-18T15:07:10.019Z,16.40
2023-02-18T15:12:19.730Z,16.30
2023-02-18T15:17:29.527Z,16.10
2023-02-18T15:22:35.513Z,16.00
2023-02-18T15:27:44.469Z,15.90
2023-02-18T15:32:54.296Z,15.80
2023-02-18T15:38:00.323Z,15.70
2023-02-18T15:43:06.559Z,15.60
2023-02-18T15:48:45.377Z,15.50
2023-02-18T15:53:52.575Z,15.30
2023-02-18T15:59:35.548Z,15.10
2023-02-18T16:04:41.271Z,14.90
2023-02-18T16:09:44.243Z,14.80
2023-02-18T16:14:50.445Z,14.60
2023-02-18T16:20:18.348Z,14.40
2023-02-18T16:25:41.344Z,14.20
2023-02-18T16:30:46.244Z,14.00
2023-02-18T16:35:50.726Z,13.70
2023-02-18T16:40:55.326Z,13.50
2023-02-18T16:46:06.298Z,13.30
2023-02-18T16:51:24.004Z,13.10
2023-02-18T16:56:33.220Z,12.90
2023-02-18T17:01:44.859Z,12.70
2023-02-18T17:06:48.735Z,12.50
2023-02-18T17:11:55.457Z,12.30
2023-02-18T17:16:58.941Z,12.10
2023-02-18T17:22:01.839Z,12.00
2023-02-18T17:27:04.582Z,11.80
2023-02-18T17:32:08.595Z,11.60
2023-02-18T17:37:14.733Z,11.40
2023-02-18T17:42:17.769Z,11.10
2023-02-18T17:47:20.770Z,10.90
2023-02-18T17:52:31.212Z,10.60
2023-02-18T17:57:34.130Z,10.40
2023-02-18T18:02:37.568Z,10.20
2023-02-18T18:07:40.573Z,10.10
2023-02-18T18:12:44.917Z,10.20
2023-02-18T18:17:48.204Z,10.50
2023-02-18T18:22:54.891Z,10.90
2023-02-18T18:27:58.423Z,11.30
2023-02-18T18:33:02.524Z,11.60
2023-02-18T18:38:06.366Z,11.90
2023-02-18T18:43:21.236Z,12.10
2023-02-18T18:48:24.843Z,12.30
2023-02-18T18:53:32.125Z,12.40
2023-02-18T18:58:35.235Z,12.50
2023-02-18T19:03:38.601Z,12.60
2023-02-18T19:08:41.857Z,12.60
2023-02-18T19:13:45.987Z,12.70
2023-02-18T19:18:49.152Z,12.60
2023-02-18T19:23:52.099Z,12.50
2023-02-18T19:28:54.934Z,12.40
2023-02-18T19:33:57.807Z,12.30
2023-02-18T19:39:00.780Z,12.30
2023-02-18T19:44:04.523Z,12.40
2023-02-18T19:49:07.555Z,12.40
2023-02-18T19:54:10.537Z,12.50
2023-02-18T19:59:13.523Z,12.50
2023-02-18T20:04:17.012Z,12.60
2023-02-18T20:09:20.179Z,12.70
2023-02-18T20:14:23.990Z,12.70
2023-02-18T20:19:30.915Z,12.70
2023-02-18T20:24:35.084Z,12.70
2023-02-18T20:29:38.334Z,12.60
2023-02-18T20:34:43.732Z,12.50
2023-02-18T20:39:46.723Z,12.40
2023-02-18T20:44:51.555Z,12.50
2023-02-18T20:49:54.599Z,12.50
2023-02-18T20:54:57.640Z,12.40
2023-02-18T21:00:00.727Z,12.30
2023-02-18T21:05:04.108Z,12.50
2023-02-18T21:10:07.910Z,12.70
2023-02-18T21:15:10.977Z,13.00
2023-02-18T21:20:14.046Z,13.30
2023-02-18T21:25:17.007Z,13.40
2023-02-18T21:30:20.458Z,13.50
2023-02-18T21:35:25.188Z,13.60
2023-02-18T21:40:28.550Z,13.80
2023-02-18T21:45:31.677Z,13.90
2023-02-18T21:50:34.596Z,13.90
2023-02-18T21:55:37.587Z,13.90
2023-02-18T22:00:40.507Z,13.90
2023-02-18T22:05:44.364Z,13.80
2023-02-18T22:10:47.320Z,13.80
2023-02-18T22:15:57.779Z,13.70
2023-02-18T22:21:04.356Z,13.50
2023-02-18T22:26:09.624Z,13.40
2023-02-18T22:31:14.239Z,13.20
2023-02-18T22:36:19.502Z,13.10
2023-02-18T22:41:24.801Z,13.00
2023-02-18T22:46:30.378Z,12.90
2023-02-18T22:51:37.883Z,12.80
2023-02-18T22:56:41.768Z,12.70
2023-02-18T23:01:53.001Z,12.60
2023-02-18T23:06:56.939Z,12.60
2023-02-18T23:12:00.362Z,12.60
2023-02-18T23:17:14.345Z,12.50
2023-02-18T23:22:24.817Z,12.50
2023-02-18T23:27:29.026Z,12.40
2023-02-18T23:32:32.088Z,12.30
2023-02-18T23:37:53.603Z,12.30
2023-02-18T23:42:56.637Z,12.20
2023-02-18T23:47:59.753Z,12.10
2023-02-18T23:53:02.561Z,12.10
2023-02-18T23:58:05.856Z,12.20
